Time;durP1;ratioP1;P1;durP2;ratioP2;P2;SDS_P1;SDS_P2;PMS_P1;PMS_P2;Temp;Humidity;BMP_temperature;BMP_pressure;BME280_temperature;BME280_humidity;BME280_pressure;Samples;Min_cycle;Max_cycle;Signal;HPM_P1;HPM_P2
2021/07/23 00:00:55;;;;;;;9.67;7.00;;;19.10;99.90;19.10;97104.00;;;;5084755;28;20203;-66
2021/07/23 00:03:45;;;;;;;6.90;6.20;;;19.20;99.90;19.10;97102.00;;;;5075622;28;20225;-66
2021/07/23 00:06:43;;;;;;;8.93;6.80;;;19.20;99.90;19.00;97097.00;;;;5072522;28;20223;-65
2021/07/23 00:09:32;;;;;;;7.20;6.00;;;19.20;99.90;18.90;97095.00;;;;5067761;28;20683;-66
2021/07/23 00:12:21;;;;;;;11.90;6.73;;;19.20;99.90;18.90;97097.00;;;;5064705;28;20204;-66
2021/07/23 00:15:11;;;;;;;10.03;6.60;;;19.20;99.90;19.00;97097.00;;;;5065755;28;20242;-65
2021/07/23 00:18:01;;;;;;;8.77;6.63;;;19.20;99.90;18.90;97090.00;;;;5065353;28;20226;-66
2021/07/23 00:20:50;;;;;;;7.47;5.80;;;19.20;99.90;19.10;97095.00;;;;5068332;28;20220;-66
2021/07/23 00:23:39;;;;;;;8.77;6.90;;;19.20;99.90;19.20;97088.00;;;;5068662;28;20211;-65
2021/07/23 00:26:28;;;;;;;8.13;6.23;;;19.20;99.90;19.10;97090.00;;;;5069181;28;20206;-66
2021/07/23 00:29:17;;;;;;;7.53;6.37;;;19.20;99.90;19.10;97094.00;;;;5068267;28;20212;-65
2021/07/23 00:32:06;;;;;;;8.37;6.43;;;19.30;99.90;19.10;97094.00;;;;5067075;28;20203;-67
2021/07/23 00:34:57;;;;;;;7.63;5.57;;;19.30;99.90;19.10;97087.00;;;;5088514;28;20650;-65
2021/07/23 00:37:45;;;;;;;9.97;6.57;;;19.30;99.90;19.20;97082.00;;;;5088650;28;20215;-65
2021/07/23 00:40:35;;;;;;;7.07;6.47;;;19.30;99.90;19.10;97090.00;;;;5088163;28;20223;-66
2021/07/23 00:43:24;;;;;;;8.03;6.03;;;19.30;99.90;19.00;97084.00;;;;5088299;28;20200;-66
2021/07/23 00:46:12;;;;;;;11.33;6.63;;;19.30;99.90;19.00;97087.00;;;;5088122;28;20226;-66
2021/07/23 00:49:01;;;;;;;8.20;6.00;;;19.20;99.90;19.10;97082.00;;;;5077407;28;20207;-66
2021/07/23 00:51:52;;;;;;;8.97;6.63;;;19.20;99.90;19.00;97088.00;;;;5068278;28;20667;-65
2021/07/23 00:54:41;;;;;;;7.90;6.37;;;19.20;99.90;19.10;97090.00;;;;5088359;28;20210;-66
2021/07/23 00:57:32;;;;;;;8.93;6.20;;;19.20;99.90;19.10;97084.00;;;;5087428;28;20223;-66
2021/07/23 01:00:21;;;;;;;7.30;6.10;;;19.30;99.90;19.10;97079.00;;;;5068342;28;20228;-65
2021/07/23 01:03:10;;;;;;;10.63;6.60;;;19.30;99.90;19.10;97078.00;;;;5067258;28;20578;-66
2021/07/23 01:05:59;;;;;;;7.20;6.40;;;19.30;99.90;19.10;97080.00;;;;5079933;28;20196;-66
2021/07/23 01:08:50;;;;;;;7.87;5.80;;;19.30;99.90;19.20;97079.00;;;;5076420;28;20204;-65
2021/07/23 01:11:39;;;;;;;6.63;5.80;;;19.30;99.90;19.10;97075.00;;;;5088354;28;20187;-65
2021/07/23 01:14:28;;;;;;;6.30;5.60;;;19.30;99.90;18.90;97071.00;;;;5087368;28;20215;-66
2021/07/23 01:17:17;;;;;;;7.27;6.50;;;19.30;99.90;18.70;97078.00;;;;5086566;28;20230;-65
2021/07/23 01:20:15;;;;;;;11.97;7.43;;;19.20;99.90;18.70;97077.00;;;;5081456;28;20227;-66
2021/07/23 01:23:04;;;;;;;10.30;7.07;;;19.10;99.90;18.90;97071.00;;;;5100476;28;20201;-66
2021/07/23 01:25:55;;;;;;;7.53;6.40;;;19.00;99.90;18.90;97064.00;;;;5070071;28;20208;-66
2021/07/23 01:28:46;;;;;;;7.33;6.33;;;19.10;99.90;19.00;97065.00;;;;5087650;28;20573;-66
2021/07/23 01:31:37;;;;;;;10.13;6.30;;;19.10;99.90;19.00;97065.00;;;;5087411;28;20206;-66
2021/07/23 01:34:26;;;;;;;9.77;6.13;;;19.10;99.90;18.70;97059.00;;;;5068223;28;20740;-65
2021/07/23 01:37:14;;;;;;;7.47;6.03;;;19.10;99.90;18.70;97063.00;;;;5083365;28;20231;-65
2021/07/23 01:40:05;;;;;;;7.80;6.67;;;19.00;99.90;18.70;97056.00;;;;5066789;28;20702;-66
2021/07/23 01:42:55;;;;;;;7.50;6.80;;;19.00;99.90;18.70;97061.00;;;;5066269;28;20207;-66
2021/07/23 01:45:44;;;;;;;9.73;8.33;;;19.00;99.90;18.80;97057.00;;;;5074791;28;20198;-66
2021/07/23 01:48:33;;;;;;;8.93;6.97;;;18.90;99.90;18.80;97049.00;;;;5073792;28;20243;-66
2021/07/23 01:51:23;;;;;;;10.33;6.60;;;18.90;99.90;18.60;97052.00;;;;5071486;28;20278;-65
2021/07/23 01:54:12;;;;;;;7.37;6.33;;;18.90;99.90;18.70;97053.00;;;;5067716;28;20214;-66
2021/07/23 01:57:01;;;;;;;6.40;5.77;;;18.90;99.90;18.60;97053.00;;;;5066092;28;20230;-65
2021/07/23 01:59:51;;;;;;;10.93;7.10;;;18.90;99.90;18.60;97051.00;;;;5065799;28;20682;-66
2021/07/23 02:02:40;;;;;;;9.23;7.13;;;18.90;99.90;18.30;97043.00;;;;5066308;28;20210;-66
2021/07/23 02:05:29;;;;;;;9.23;6.47;;;18.80;99.90;18.10;97044.00;;;;5081301;28;20204;-66
2021/07/23 02:08:18;;;;;;;9.17;6.03;;;18.70;99.90;18.00;97041.00;;;;5067071;28;20228;-66
2021/07/23 02:11:07;;;;;;;9.13;6.40;;;18.60;99.90;17.90;97043.00;;;;5065127;28;20211;-65
2021/07/23 02:13:55;;;;;;;7.40;6.60;;;18.40;99.90;17.90;97039.00;;;;5066232;28;20200;-65
2021/07/23 02:16:46;;;;;;;12.57;7.50;;;18.30;99.90;18.00;97042.00;;;;5066201;28;20227;-65
2021/07/23 02:19:35;;;;;;;11.10;7.37;;;18.30;99.90;18.10;97036.00;;;;5066523;28;20195;-65
2021/07/23 02:22:24;;;;;;;8.97;6.57;;;18.30;99.90;18.10;97041.00;;;;5065000;28;20265;-65
2021/07/23 02:25:13;;;;;;;7.93;5.83;;;18.30;99.90;18.20;97036.00;;;;5066806;28;20204;-65
2021/07/23 02:28:03;;;;;;;6.60;5.90;;;18.30;99.90;18.20;97032.00;;;;5067226;28;20685;-65
2021/07/23 02:30:52;;;;;;;8.57;6.93;;;18.30;99.90;18.20;97037.00;;;;5066463;28;20207;-64
2021/07/23 02:33:42;;;;;;;12.80;6.80;;;18.30;99.90;18.20;97037.00;;;;5065061;28;20211;-64
2021/07/23 02:36:31;;;;;;;8.77;6.80;;;18.40;99.90;17.90;97041.00;;;;5085718;28;20211;-65
2021/07/23 02:39:20;;;;;;;8.07;6.70;;;18.30;99.90;17.70;97040.00;;;;5066329;28;20204;-65
2021/07/23 02:42:09;;;;;;;12.47;7.03;;;18.20;99.90;17.70;97041.00;;;;5065760;28;20204;-65
2021/07/23 02:44:58;;;;;;;7.30;6.47;;;18.10;99.90;17.80;97038.00;;;;5065706;28;20204;-65
2021/07/23 02:47:47;;;;;;;10.37;6.50;;;18.10;99.90;17.80;97033.00;;;;5085555;28;20245;-65
2021/07/23 02:50:37;;;;;;;11.20;7.33;;;18.10;99.90;17.90;97028.00;;;;5065022;28;20210;-65
2021/07/23 02:53:26;;;;;;;8.27;7.07;;;18.10;99.90;18.00;97035.00;;;;5065958;28;20210;-65
2021/07/23 02:56:15;;;;;;;6.97;6.27;;;18.10;99.90;18.00;97036.00;;;;5065739;28;20214;-65
2021/07/23 02:59:04;;;;;;;10.60;6.27;;;18.10;99.90;17.70;97035.00;;;;5067532;28;20200;-65
2021/07/23 03:01:53;;;;;;;11.43;6.57;;;18.10;99.90;17.50;97027.00;;;;5065545;28;20230;-65
2021/07/23 03:04:42;;;;;;;10.67;9.43;;;18.00;99.90;17.70;97037.00;;;;5086810;28;20253;-65
2021/07/23 03:07:32;;;;;;;8.60;7.70;;;18.00;99.90;17.70;97042.00;;;;5065413;28;20253;-64
2021/07/23 03:10:21;;;;;;;10.27;6.27;;;17.90;99.90;17.50;97022.00;;;;5074437;28;20193;-65
2021/07/23 03:13:10;;;;;;;8.40;7.03;;;17.90;99.90;17.10;97036.00;;;;5065652;28;20204;-64
2021/07/23 03:15:59;;;;;;;7.63;6.90;;;17.80;99.90;17.30;97037.00;;;;5085533;28;20687;-64
2021/07/23 03:18:48;;;;;;;8.37;6.50;;;17.70;99.90;17.30;97026.00;;;;5086575;28;20199;-64
2021/07/23 03:21:36;;;;;;;7.73;7.03;;;17.70;99.90;17.30;97025.00;;;;5085661;28;20234;-64
2021/07/23 03:24:27;;;;;;;10.33;6.87;;;17.70;99.90;17.10;97029.00;;;;5065674;28;20712;-64
2021/07/23 03:27:15;;;;;;;7.97;6.57;;;17.60;99.90;17.10;97029.00;;;;5084812;28;20223;-65
2021/07/23 03:30:07;;;;;;;7.90;6.87;;;17.50;99.90;17.20;97028.00;;;;5085575;28;20571;-64
2021/07/23 03:32:56;;;;;;;7.70;7.00;;;17.50;99.90;17.20;97021.00;;;;5086127;28;20883;-65
2021/07/23 03:35:45;;;;;;;7.60;6.77;;;17.50;99.90;17.10;97022.00;;;;5065721;28;20754;-64
2021/07/23 03:38:34;;;;;;;7.50;6.37;;;17.50;99.90;17.10;97017.00;;;;5085879;28;20223;-64
2021/07/23 03:41:24;;;;;;;7.90;6.47;;;17.40;99.90;17.10;97022.00;;;;5086054;28;20219;-65
2021/07/23 03:44:13;;;;;;;8.33;7.53;;;17.40;99.90;17.00;97016.00;;;;5074735;28;20233;-64
2021/07/23 03:47:02;;;;;;;6.67;5.97;;;17.40;99.90;16.80;97018.00;;;;5064956;28;20319;-65
2021/07/23 03:49:51;;;;;;;10.37;7.17;;;17.30;99.90;16.50;97007.00;;;;5082902;28;20652;-66
2021/07/23 03:52:40;;;;;;;11.57;7.40;;;17.20;99.90;16.60;97016.00;;;;5065818;28;20679;-65
2021/07/23 03:55:29;;;;;;;9.50;6.60;;;17.10;99.90;16.70;97017.00;;;;5067547;28;20228;-65
2021/07/23 03:58:19;;;;;;;8.63;7.03;;;17.00;99.90;16.60;97019.00;;;;5089476;28;20265;-65
2021/07/23 04:01:08;;;;;;;7.87;6.70;;;17.00;99.90;16.50;97024.00;;;;5089407;28;20226;-65
2021/07/23 04:03:57;;;;;;;13.97;7.30;;;16.90;99.90;16.30;97022.00;;;;5090128;28;20678;-65
2021/07/23 04:06:46;;;;;;;9.30;7.03;;;16.90;99.90;16.40;97022.00;;;;5074360;28;20230;-65
2021/07/23 04:09:35;;;;;;;8.97;7.60;;;16.80;99.90;16.60;97024.00;;;;5088127;28;20203;-65
2021/07/23 04:12:24;;;;;;;11.30;6.60;;;16.80;99.90;16.60;97021.00;;;;5088889;28;20252;-65
2021/07/23 04:15:14;;;;;;;7.40;6.70;;;16.90;99.90;16.70;97018.00;;;;5089266;28;20203;-66
2021/07/23 04:18:03;;;;;;;9.53;7.33;;;16.90;99.90;16.80;97014.00;;;;5069563;28;21298;-65
2021/07/23 04:20:52;;;;;;;7.50;6.47;;;16.90;99.90;16.70;97018.00;;;;5068729;28;20690;-64
2021/07/23 04:23:41;;;;;;;8.13;6.60;;;17.00;99.90;16.70;97025.00;;;;5088318;28;20204;-64
2021/07/23 04:26:30;;;;;;;7.53;6.77;;;17.00;99.90;16.60;97028.00;;;;5088402;28;20207;-65
2021/07/23 04:29:19;;;;;;;7.27;6.60;;;17.00;99.90;16.50;97022.00;;;;5069819;28;20708;-65
2021/07/23 04:32:09;;;;;;;9.40;8.02;;;16.90;99.90;16.50;97016.00;;;;5087555;28;20385;-64
2021/07/23 04:34:58;;;;;;;7.97;6.57;;;16.90;99.90;16.70;97021.00;;;;5089477;28;20218;-64
2021/07/23 04:37:47;;;;;;;8.10;6.73;;;16.90;99.90;16.60;97024.00;;;;5078088;28;20311;-64
2021/07/23 04:40:36;;;;;;;11.03;7.63;;;16.90;99.90;16.60;97025.00;;;;5067931;28;20211;-64
2021/07/23 04:43:25;;;;;;;13.23;6.93;;;16.90;99.90;16.60;97040.00;;;;5089187;28;20719;-64
2021/07/23 04:46:14;;;;;;;8.47;7.23;;;16.90;99.90;16.50;97037.00;;;;5089229;28;20713;-64
2021/07/23 04:49:05;;;;;;;7.97;6.23;;;16.90;99.90;16.80;97032.00;;;;5078596;28;20268;-64
2021/07/23 04:51:53;;;;;;;8.10;6.80;;;16.90;99.90;17.00;97041.00;;;;5092779;28;20207;-65
2021/07/23 04:54:43;;;;;;;10.47;6.73;;;17.00;99.90;17.10;97041.00;;;;5085057;28;20218;-65
2021/07/23 04:57:32;;;;;;;5.67;5.07;;;17.10;99.90;17.10;97033.00;;;;5069981;28;20227;-65
2021/07/23 05:00:21;;;;;;;10.00;6.40;;;17.20;99.90;17.40;97022.00;;;;5088343;28;20214;-65
2021/07/23 05:03:11;;;;;;;8.50;6.07;;;17.30;99.90;17.70;97034.00;;;;5094582;28;20222;-64
2021/07/23 05:06:02;;;;;;;6.97;6.27;;;17.50;99.90;17.90;97020.00;;;;5079488;28;20235;-65
2021/07/23 05:08:51;;;;;;;6.57;5.63;;;17.70;99.90;17.70;97030.00;;;;5088595;28;20222;-64
2021/07/23 05:11:40;;;;;;;8.90;6.57;;;17.80;99.90;17.50;97023.00;;;;5087361;28;20573;-64
2021/07/23 05:14:31;;;;;;;6.97;5.97;;;17.80;99.90;17.60;97018.00;;;;5070927;28;20612;-63
2021/07/23 05:17:20;;;;;;;6.93;5.70;;;17.90;99.90;17.70;97018.00;;;;5068584;28;20228;-65
2021/07/23 05:20:10;;;;;;;6.87;6.27;;;17.90;99.90;17.70;97015.00;;;;5088521;28;20199;-63
2021/07/23 05:23:02;;;;;;;9.17;6.73;;;17.90;99.90;17.90;97017.00;;;;5089699;28;20222;-64
2021/07/23 05:25:51;;;;;;;7.60;6.90;;;18.00;99.90;18.00;97012.00;;;;5094201;28;20196;-65
2021/07/23 05:28:40;;;;;;;7.63;6.53;;;18.10;99.90;18.00;97016.00;;;;5068138;28;20227;-65
2021/07/23 05:31:29;;;;;;;7.70;5.83;;;18.20;99.90;18.30;97019.00;;;;5087651;28;20211;-64
2021/07/23 05:34:18;;;;;;;7.27;6.67;;;18.30;99.90;18.50;97006.00;;;;5068172;28;20219;-65
2021/07/23 05:37:06;;;;;;;7.10;5.63;;;18.40;99.90;18.60;97004.00;;;;5067699;28;20220;-65
2021/07/23 05:39:57;;;;;;;8.50;6.17;;;18.60;99.90;18.70;97012.00;;;;5066690;28;20207;-65
2021/07/23 05:42:45;;;;;;;7.70;6.30;;;18.70;99.90;18.80;97006.00;;;;5075994;28;20227;-66
2021/07/23 05:45:34;;;;;;;10.80;6.87;;;18.80;99.90;19.10;97001.00;;;;5071696;28;20237;-65
2021/07/23 05:48:23;;;;;;;8.37;6.97;;;19.00;99.90;19.20;97008.00;;;;5095545;28;20230;-65
2021/07/23 05:51:13;;;;;;;8.33;5.90;;;19.10;99.90;19.40;97011.00;;;;5080726;28;20214;-63
2021/07/23 05:54:01;;;;;;;10.57;7.43;;;19.20;99.90;19.70;97003.00;;;;5076414;28;20679;-64
2021/07/23 05:56:52;;;;;;;9.97;7.97;;;19.40;99.90;19.60;97005.00;;;;5078397;28;20224;-64
2021/07/23 05:59:40;;;;;;;8.60;6.80;;;19.50;99.90;19.80;97014.00;;;;5066094;28;20211;-65
2021/07/23 06:02:29;;;;;;;9.97;7.63;;;19.70;99.90;20.10;96997.00;;;;5066638;28;20235;-64
2021/07/23 06:05:18;;;;;;;12.53;7.10;;;19.90;99.90;20.30;97007.00;;;;5067482;28;20214;-64
2021/07/23 06:08:07;;;;;;;9.60;7.50;;;20.00;99.90;20.50;97010.00;;;;5079942;28;20721;-65
2021/07/23 06:10:56;;;;;;;77.37;19.53;;;20.20;99.90;20.60;97007.00;;;;5081347;28;20196;-65
2021/07/23 06:13:47;;;;;;;40.10;12.23;;;20.30;99.90;20.60;97000.00;;;;5081615;28;20244;-65
2021/07/23 06:16:36;;;;;;;15.40;8.60;;;20.50;99.90;20.70;96997.00;;;;5066081;28;20563;-63
2021/07/23 06:19:25;;;;;;;12.60;8.80;;;20.60;99.90;20.90;97009.00;;;;5065944;28;20231;-64
2021/07/23 06:22:15;;;;;;;10.37;6.80;;;20.70;99.90;21.00;97000.00;;;;5066040;28;20307;-64
2021/07/23 06:25:05;;;;;;;8.57;6.90;;;20.80;99.90;21.20;97001.00;;;;5075651;28;20204;-63
2021/07/23 06:27:54;;;;;;;10.67;6.77;;;21.00;99.90;21.40;96991.00;;;;5074777;28;21163;-63
2021/07/23 06:30:45;;;;;;;9.23;6.93;;;21.10;99.90;21.50;96987.00;;;;5069234;28;20561;-65
2021/07/23 06:33:34;;;;;;;8.67;6.70;;;21.20;99.90;21.70;96992.00;;;;5085096;28;20192;-65
2021/07/23 06:36:23;;;;;;;9.90;7.37;;;21.40;99.90;21.80;96991.00;;;;5069335;28;20207;-63
2021/07/23 06:39:11;;;;;;;12.17;7.70;;;21.60;99.90;22.00;96991.00;;;;5084657;28;20210;-64
2021/07/23 06:42:00;;;;;;;10.77;7.37;;;21.70;99.90;22.10;96988.00;;;;5073857;28;20224;-64
2021/07/23 06:44:49;;;;;;;11.03;6.50;;;21.90;99.90;22.20;96991.00;;;;5071975;28;20746;-63
2021/07/23 06:47:40;;;;;;;10.50;7.27;;;22.00;99.90;22.30;96990.00;;;;5080149;28;20288;-63
2021/07/23 06:50:31;;;;;;;9.07;6.43;;;22.10;99.90;22.40;96991.00;;;;5081693;28;20206;-63
2021/07/23 06:53:21;;;;;;;7.80;6.03;;;22.30;99.90;22.50;96999.00;;;;5074512;28;20204;-66
2021/07/23 06:56:10;;;;;;;13.63;6.53;;;22.30;99.90;22.60;96992.00;;;;5076725;28;20199;-66
2021/07/23 06:58:58;;;;;;;10.47;7.43;;;22.40;99.90;22.80;97008.00;;;;5082686;28;20207;-64
2021/07/23 07:01:47;;;;;;;8.57;5.80;;;22.50;99.90;22.70;96998.00;;;;5080322;28;20214;-64
2021/07/23 07:04:38;;;;;;;9.97;6.70;;;22.60;99.90;22.90;97002.00;;;;5081833;28;20203;-64
2021/07/23 07:07:27;;;;;;;7.80;5.33;;;22.70;99.90;22.90;97001.00;;;;5083300;28;20510;-65
2021/07/23 07:10:16;;;;;;;6.77;4.67;;;22.80;99.90;23.10;97009.00;;;;5068753;28;20852;-66
2021/07/23 07:13:05;;;;;;;5.60;4.67;;;22.90;99.90;23.40;97005.00;;;;5073999;28;20214;-67
2021/07/23 07:15:53;;;;;;;8.83;5.53;;;23.00;99.10;23.40;97002.00;;;;5074520;28;20207;-65
2021/07/23 07:18:42;;;;;;;5.83;5.23;;;23.20;96.70;23.50;97005.00;;;;5083879;28;20203;-66
2021/07/23 07:21:33;;;;;;;7.83;4.77;;;23.30;95.90;23.70;96998.00;;;;5064459;28;20224;-65
2021/07/23 07:24:22;;;;;;;6.10;4.87;;;23.40;94.80;23.70;97003.00;;;;5070808;28;20223;-65
2021/07/23 07:27:13;;;;;;;6.03;4.30;;;23.50;93.70;23.80;97001.00;;;;5068877;28;20281;-65
2021/07/23 07:30:02;;;;;;;6.67;5.47;;;23.60;91.90;23.80;96985.00;;;;5063624;28;20196;-65
2021/07/23 07:32:51;;;;;;;6.73;5.23;;;23.80;91.30;24.00;96980.00;;;;5080185;28;20214;-66
2021/07/23 07:35:42;;;;;;;5.50;4.23;;;23.80;91.00;24.10;96986.00;;;;5072651;28;20704;-65
2021/07/23 07:38:33;;;;;;;6.50;4.30;;;23.90;89.40;24.20;96978.00;;;;5064785;28;20259;-66
2021/07/23 07:41:21;;;;;;;6.47;4.57;;;24.00;87.50;24.20;96977.00;;;;5071718;28;20207;-66
2021/07/23 07:44:10;;;;;;;6.40;4.87;;;24.10;84.80;24.40;96976.00;;;;5067227;28;20963;-65
2021/07/23 07:46:59;;;;;;;4.63;4.00;;;24.20;82.90;24.30;96975.00;;;;5075531;28;20216;-65
2021/07/23 07:49:48;;;;;;;6.20;4.47;;;24.20;78.80;24.60;96975.00;;;;5088164;28;20203;-65
2021/07/23 07:52:37;;;;;;;6.63;5.13;;;24.30;79.50;24.50;96970.00;;;;5079156;28;20193;-65
2021/07/23 07:55:28;;;;;;;9.87;4.57;;;24.40;80.70;24.50;96973.00;;;;5065786;28;20621;-66
2021/07/23 07:58:16;;;;;;;9.60;6.10;;;24.40;78.20;24.60;96983.00;;;;5065426;28;20216;-65
2021/07/23 08:01:06;;;;;;;6.50;4.73;;;24.40;79.90;24.90;96983.00;;;;5064926;28;20212;-65
2021/07/23 08:03:55;;;;;;;11.53;5.60;;;24.60;80.30;25.00;96979.00;;;;5085629;28;20576;-65
2021/07/23 08:06:45;;;;;;;7.63;5.17;;;24.70;79.20;25.00;96978.00;;;;5080665;28;20238;-65
2021/07/23 08:09:47;;;;;;;6.23;5.20;;;24.80;78.90;24.50;96990.00;;;;5077885;28;20558;-65
2021/07/23 08:12:38;;;;;;;9.00;5.23;;;24.90;76.10;24.80;96978.00;;;;5065349;28;20203;-64
2021/07/23 08:15:27;;;;;;;6.87;5.77;;;24.80;74.70;25.10;96982.00;;;;5068385;28;20204;-65
2021/07/23 08:18:15;;;;;;;10.03;5.53;;;24.90;76.10;25.20;96978.00;;;;5080862;28;20701;-66
2021/07/23 08:21:05;;;;;;;7.67;5.73;;;25.00;76.10;24.90;96975.00;;;;5089132;28;20209;-65
2021/07/23 08:23:54;;;;;;;5.33;4.83;;;25.10;74.60;25.50;96976.00;;;;5067205;28;20225;-65
2021/07/23 08:26:43;;;;;;;5.90;5.33;;;25.20;74.30;25.30;96981.00;;;;5082244;28;20223;-66
2021/07/23 08:29:33;;;;;;;9.97;6.20;;;25.20;74.20;25.50;96980.00;;;;5074440;28;20236;-65
2021/07/23 08:32:22;;;;;;;7.37;6.23;;;25.30;73.80;25.60;96976.00;;;;5082619;28;20200;-66
2021/07/23 08:35:13;;;;;;;10.27;6.13;;;25.40;74.00;25.70;96970.00;;;;5084048;28;20193;-65
2021/07/23 08:38:02;;;;;;;9.17;5.93;;;25.50;73.70;25.10;96976.00;;;;5083563;28;20810;-66
2021/07/23 08:40:51;;;;;;;9.10;6.13;;;25.60;71.20;25.50;96968.00;;;;5071978;28;20233;-66
2021/07/23 08:43:40;;;;;;;10.97;5.87;;;25.50;71.70;26.00;96975.00;;;;5067742;28;20237;-65
2021/07/23 08:46:31;;;;;;;8.53;6.03;;;25.60;73.30;26.00;96969.00;;;;5075940;28;20209;-66
2021/07/23 08:49:20;;;;;;;7.57;6.00;;;25.70;73.60;26.20;96969.00;;;;5085709;28;20239;-66
2021/07/23 08:52:09;;;;;;;9.50;6.97;;;25.90;73.60;26.20;96959.00;;;;5080228;28;20210;-65
2021/07/23 08:54:58;;;;;;;7.07;6.40;;;26.00;71.80;25.10;96960.00;;;;5079978;28;20197;-66
2021/07/23 08:57:49;;;;;;;15.07;6.93;;;25.80;69.80;25.90;96955.00;;;;5079242;28;20311;-65
2021/07/23 09:00:39;;;;;;;7.13;6.10;;;25.80;70.50;25.60;96949.00;;;;5080488;28;20702;-67
2021/07/23 09:03:31;;;;;;;6.63;5.90;;;25.90;69.90;25.40;96953.00;;;;5085077;28;20224;-67
2021/07/23 09:06:22;;;;;;;7.73;6.10;;;25.80;71.00;25.40;96941.00;;;;5071471;28;20198;-68
2021/07/23 09:09:21;;;;;;;9.07;6.13;;;25.80;69.50;26.20;96956.00;;;;5088218;28;20209;-67
2021/07/23 09:12:10;;;;;;;7.67;6.87;;;25.90;71.40;26.70;96950.00;;;;5080211;28;20263;-67
2021/07/23 09:14:59;;;;;;;10.73;7.33;;;26.10;72.20;26.70;96950.00;;;;5070590;28;20213;-68
2021/07/23 09:17:48;;;;;;;7.47;6.53;;;26.30;72.20;27.00;96943.00;;;;5087549;28;20240;-68
2021/07/23 09:20:42;;;;;;;8.27;6.90;;;26.50;70.70;27.30;96953.00;;;;5078358;28;20216;-67
2021/07/23 09:23:33;;;;;;;7.03;6.33;;;26.80;70.80;27.10;96948.00;;;;5083417;28;20223;-67
2021/07/23 09:26:24;;;;;;;11.23;6.87;;;26.90;69.30;26.20;96947.00;;;;5081531;28;20195;-68
2021/07/23 09:29:14;;;;;;;7.37;6.60;;;26.90;68.40;25.80;96942.00;;;;5082861;28;20204;-67
2021/07/23 09:32:07;;;;;;;11.87;7.50;;;26.60;66.30;26.10;96919.00;;;;5080028;28;20201;-67
2021/07/23 09:35:12;;;;;;;8.90;7.33;;;26.40;66.80;27.10;96937.00;;;;5079310;28;20191;-67
2021/07/23 09:38:02;;;;;;;9.23;7.97;;;26.50;69.50;27.40;96923.00;;;;5078926;28;20214;-66
2021/07/23 09:40:52;;;;;;;10.70;7.40;;;26.80;68.50;27.10;96929.00;;;;5077097;28;20227;-66
2021/07/23 09:43:45;;;;;;;8.57;7.67;;;27.00;69.00;26.60;96927.00;;;;5086138;28;20245;-66
2021/07/23 09:46:34;;;;;;;9.23;7.30;;;27.10;66.10;27.30;96919.00;;;;5084528;28;20227;-66
2021/07/23 09:49:26;;;;;;;12.87;8.23;;;27.10;68.10;27.10;96904.00;;;;5078011;28;20240;-66
2021/07/23 09:52:17;;;;;;;9.33;7.60;;;27.20;66.60;27.40;96916.00;;;;5083188;28;20200;-66
2021/07/23 09:55:08;;;;;;;9.27;8.07;;;27.20;68.30;28.20;96914.00;;;;5076765;28;20214;-65
2021/07/23 09:57:59;;;;;;;10.80;7.43;;;27.50;69.10;28.00;96908.00;;;;5081076;28;20217;-64
2021/07/23 10:00:56;;;;;;;9.07;7.20;;;27.60;65.20;28.00;96899.00;;;;5078272;28;20197;-67
2021/07/23 10:03:47;;;;;;;9.03;7.30;;;27.80;64.00;27.90;96889.00;;;;5080873;28;20607;-65
2021/07/23 10:06:44;;;;;;;8.87;7.97;;;27.90;64.30;27.80;96891.00;;;;5079016;28;20210;-66
2021/07/23 10:09:37;;;;;;;10.67;7.57;;;28.00;67.20;28.90;96885.00;;;;5077502;28;20268;-65
2021/07/23 10:12:30;;;;;;;10.63;7.97;;;28.20;66.80;28.40;96892.00;;;;5064257;28;20206;-66
2021/07/23 10:15:19;;;;;;;10.07;7.47;;;28.50;64.40;27.70;96882.00;;;;5067276;28;20592;-66
2021/07/23 10:18:09;;;;;;;11.07;8.17;;;28.50;62.20;28.20;96885.00;;;;5076140;28;20308;-67
2021/07/23 10:21:00;;;;;;;11.50;6.97;;;28.30;63.30;28.20;96875.00;;;;5077719;28;20534;-66
2021/07/23 10:23:50;;;;;;;8.37;7.47;;;28.30;63.40;29.20;96870.00;;;;5083060;28;20222;-67
2021/07/23 10:26:38;;;;;;;11.90;8.07;;;28.50;64.30;29.40;96866.00;;;;5074460;28;20235;-66
2021/07/23 10:29:51;;;;;;;12.20;7.93;;;28.70;63.90;30.10;96859.00;;;;5074225;28;20216;-67
2021/07/23 10:32:39;;;;;;;9.77;7.60;;;29.10;64.00;30.50;96862.00;;;;5086831;28;20205;-67
2021/07/23 10:35:36;;;;;;;8.50;7.63;;;29.60;63.60;30.70;96858.00;;;;5069029;28;20200;-67
2021/07/23 10:38:25;;;;;;;9.30;8.30;;;29.90;62.30;31.20;96853.00;;;;5084618;28;20219;-67
2021/07/23 10:41:14;;;;;;;9.23;8.13;;;30.20;60.90;30.90;96846.00;;;;5066246;28;20216;-66
2021/07/23 10:44:03;;;;;;;11.37;8.43;;;30.50;59.20;31.20;96841.00;;;;5065600;28;20607;-67
2021/07/23 10:46:58;;;;;;;9.07;8.23;;;30.60;58.20;31.70;96832.00;;;;5066017;28;20252;-68
2021/07/23 10:49:48;;;;;;;7.70;6.80;;;30.80;58.70;31.40;96831.00;;;;5083571;28;20211;-67
2021/07/23 10:52:38;;;;;;;8.43;7.60;;;30.90;57.40;31.60;96827.00;;;;5077942;28;20205;-68
2021/07/23 10:55:28;;;;;;;9.05;7.38;;;31.00;58.10;31.50;96828.00;;;;5083928;28;20203;-68
2021/07/23 10:58:34;;;;;;;10.93;8.23;;;31.00;58.50;31.50;96817.00;;;;5066154;28;20235;-67
2021/07/23 11:01:50;;;;;;;9.05;7.78;;;31.10;58.10;30.50;96820.00;;;;5065789;28;20199;-68
2021/07/23 11:04:40;;;;;;;8.52;7.63;;;30.90;57.90;30.70;96825.00;;;;5064954;28;20222;-68
2021/07/23 11:07:29;;;;;;;8.65;7.75;;;30.70;58.70;30.00;96822.00;;;;5064964;28;20223;-67
2021/07/23 11:10:23;;;;;;;9.23;8.23;;;30.50;58.60;29.40;96835.00;;;;5065906;28;20226;-67
2021/07/23 11:13:12;;;;;;;8.70;7.63;;;30.10;58.80;28.70;96830.00;;;;5082954;28;20199;-67
2021/07/23 11:16:13;;;;;;;7.97;7.28;;;29.70;58.20;28.20;96833.00;;;;5089315;28;20256;-65
2021/07/23 11:19:04;;;;;;;9.00;7.60;;;29.20;58.30;27.50;96832.00;;;;5072826;28;20205;-65
2021/07/23 11:21:55;;;;;;;14.60;8.43;;;28.80;59.50;27.40;96830.00;;;;5085701;28;20231;-72
2021/07/23 11:24:45;;;;;;;9.07;8.10;;;28.40;60.20;28.00;96820.00;;;;5067116;28;20238;-65
2021/07/23 11:27:37;;;;;;;9.57;8.00;;;28.20;61.60;27.50;96821.00;;;;5081170;28;20248;-69
2021/07/23 11:30:26;;;;;;;22.90;12.80;;;28.00;59.90;28.40;96815.00;;;;5076905;28;20204;-69
2021/07/23 11:33:15;;;;;;;8.80;7.53;;;28.00;62.10;29.60;96784.00;;;;5082208;28;20215;-68
2021/07/23 11:36:04;;;;;;;7.23;6.43;;;28.50;61.80;30.60;96782.00;;;;5079063;28;20715;-66
2021/07/23 11:39:06;;;;;;;10.57;8.00;;;29.10;61.20;31.70;96791.00;;;;5074564;28;20210;-65
2021/07/23 11:41:59;;;;;;;9.15;7.32;;;29.80;61.60;32.20;96786.00;;;;5075851;28;20208;-69
2021/07/23 11:44:55;;;;;;;16.17;9.85;;;30.50;59.80;32.50;96797.00;;;;5078040;28;20266;-67
2021/07/23 11:47:46;;;;;;;19.80;11.75;;;31.10;59.10;32.60;96808.00;;;;5077698;28;20218;-70
2021/07/23 11:50:37;;;;;;;8.18;7.07;;;31.50;57.90;32.90;96793.00;;;;5096945;28;20212;-67
2021/07/23 11:53:26;;;;;;;13.80;9.25;;;31.90;57.50;32.70;96836.00;;;;5097677;28;20194;-68
2021/07/23 11:56:29;;;;;;;10.75;8.07;;;32.10;56.80;30.90;96851.00;;;;5072789;28;20224;-68
2021/07/23 11:59:18;;;;;;;7.68;6.97;;;31.70;56.10;30.10;96846.00;;;;5076665;28;20816;-67
2021/07/23 12:02:09;;;;;;;9.98;7.93;;;31.10;56.00;28.00;96844.00;;;;5073812;28;20256;-67
2021/07/23 12:05:09;;;;;;;13.38;8.18;;;30.20;57.40;26.70;96842.00;;;;5071438;28;20309;-67
2021/07/23 12:07:59;;;;;;;11.73;7.73;;;29.00;58.70;26.90;96835.00;;;;5072911;28;20304;-68
2021/07/23 12:10:52;;;;;;;8.33;7.37;;;27.90;61.80;26.80;96762.00;;;;5065984;28;20207;-69
2021/07/23 12:13:43;;;;;;;9.37;8.30;;;27.40;63.40;26.70;96773.00;;;;5084317;28;20201;-70
2021/07/23 12:16:32;;;;;;;9.77;7.20;;;27.20;64.20;27.00;96768.00;;;;5083998;28;20207;-67
2021/07/23 12:19:22;;;;;;;8.67;7.43;;;27.30;65.50;27.10;96766.00;;;;5084695;28;20303;-67
2021/07/23 12:22:14;;;;;;;8.30;7.50;;;27.40;66.20;27.10;96769.00;;;;5092049;28;20216;-67
2021/07/23 12:25:17;;;;;;;9.17;7.53;;;27.20;67.50;26.40;96763.00;;;;5069738;28;20233;-65
2021/07/23 12:28:12;;;;;;;9.60;7.63;;;26.90;66.70;26.50;96781.00;;;;5067891;28;20346;-68
2021/07/23 12:31:03;;;;;;;7.77;6.97;;;26.90;67.50;26.60;96748.00;;;;5078015;28;20211;-68
2021/07/23 12:34:07;;;;;;;9.33;8.20;;;26.80;68.20;26.30;96741.00;;;;5082646;28;20205;-66